sensor_id;sensor_type;location;lat;lon;timestamp;P1;durP1;ratioP1;P2;durP2;ratioP2
15307;SDS011;7755;52.208;6.964;2023-09-07T00:02:52;5.70;;;5.20;;
15307;SDS011;7755;52.208;6.964;2023-09-07T00:06:54;6.43;;;5.83;;
15307;SDS011;7755;52.208;6.964;2023-09-07T00:11:02;7.10;;;6.55;;
15307;SDS011;7755;52.208;6.964;2023-09-07T00:15:05;6.53;;;5.93;;
15307;SDS011;7755;52.208;6.964;2023-09-07T00:19:10;5.97;;;5.47;;
15307;SDS011;7755;52.208;6.964;2023-09-07T00:23:13;6.37;;;5.80;;
15307;SDS011;7755;52.208;6.964;2023-09-07T00:27:16;6.00;;;5.50;;
15307;SDS011;7755;52.208;6.964;2023-09-07T00:31:19;5.40;;;4.93;;
15307;SDS011;7755;52.208;6.964;2023-09-07T00:35:23;6.50;;;5.90;;
15307;SDS011;7755;52.208;6.964;2023-09-07T00:39:27;5.80;;;5.30;;
15307;SDS011;7755;52.208;6.964;2023-09-07T00:43:30;6.07;;;5.57;;
15307;SDS011;7755;52.208;6.964;2023-09-07T00:47:33;6.47;;;5.87;;
15307;SDS011;7755;52.208;6.964;2023-09-07T00:51:39;7.00;;;6.40;;
15307;SDS011;7755;52.208;6.964;2023-09-07T00:55:42;8.00;;;7.20;;
15307;SDS011;7755;52.208;6.964;2023-09-07T00:59:45;6.73;;;6.20;;
15307;SDS011;7755;52.208;6.964;2023-09-07T01:03:48;6.60;;;6.00;;
15307;SDS011;7755;52.208;6.964;2023-09-07T01:07:54;5.93;;;5.43;;
15307;SDS011;7755;52.208;6.964;2023-09-07T01:12:04;5.47;;;5.07;;
15307;SDS011;7755;52.208;6.964;2023-09-07T01:16:12;6.37;;;5.80;;
15307;SDS011;7755;52.208;6.964;2023-09-07T01:20:16;5.60;;;5.10;;
15307;SDS011;7755;52.208;6.964;2023-09-07T01:24:21;6.23;;;5.13;;
15307;SDS011;7755;52.208;6.964;2023-09-07T01:28:25;5.83;;;5.23;;
15307;SDS011;7755;52.208;6.964;2023-09-07T01:32:29;5.60;;;5.20;;
15307;SDS011;7755;52.208;6.964;2023-09-07T01:36:33;6.53;;;5.97;;
15307;SDS011;7755;52.208;6.964;2023-09-07T01:40:37;6.50;;;6.00;;
15307;SDS011;7755;52.208;6.964;2023-09-07T01:44:40;8.10;;;5.87;;
15307;SDS011;7755;52.208;6.964;2023-09-07T01:48:44;6.07;;;5.57;;
15307;SDS011;7755;52.208;6.964;2023-09-07T01:52:47;6.63;;;6.03;;
15307;SDS011;7755;52.208;6.964;2023-09-07T01:56:52;5.83;;;5.33;;
15307;SDS011;7755;52.208;6.964;2023-09-07T02:00:56;6.40;;;5.90;;
15307;SDS011;7755;52.208;6.964;2023-09-07T02:05:00;7.17;;;6.47;;
15307;SDS011;7755;52.208;6.964;2023-09-07T02:09:03;6.60;;;6.00;;
15307;SDS011;7755;52.208;6.964;2023-09-07T02:13:07;7.37;;;6.87;;
15307;SDS011;7755;52.208;6.964;2023-09-07T02:17:11;6.90;;;6.30;;
15307;SDS011;7755;52.208;6.964;2023-09-07T02:21:24;5.73;;;5.23;;
15307;SDS011;7755;52.208;6.964;2023-09-07T02:25:27;5.93;;;5.27;;
15307;SDS011;7755;52.208;6.964;2023-09-07T02:29:33;6.70;;;6.00;;
15307;SDS011;7755;52.208;6.964;2023-09-07T02:33:36;6.00;;;5.60;;
15307;SDS011;7755;52.208;6.964;2023-09-07T02:37:38;5.87;;;5.27;;
15307;SDS011;7755;52.208;6.964;2023-09-07T02:41:41;5.77;;;5.37;;
15307;SDS011;7755;52.208;6.964;2023-09-07T02:45:45;5.90;;;5.30;;
15307;SDS011;7755;52.208;6.964;2023-09-07T02:49:48;7.50;;;6.83;;
15307;SDS011;7755;52.208;6.964;2023-09-07T02:53:51;5.73;;;5.30;;
15307;SDS011;7755;52.208;6.964;2023-09-07T02:57:57;6.47;;;5.93;;
15307;SDS011;7755;52.208;6.964;2023-09-07T03:02:02;6.93;;;6.33;;
15307;SDS011;7755;52.208;6.964;2023-09-07T03:06:09;7.70;;;6.23;;
15307;SDS011;7755;52.208;6.964;2023-09-07T03:10:15;6.37;;;5.87;;
15307;SDS011;7755;52.208;6.964;2023-09-07T03:14:19;6.00;;;5.50;;
15307;SDS011;7755;52.208;6.964;2023-09-07T03:18:23;6.37;;;5.83;;
15307;SDS011;7755;52.208;6.964;2023-09-07T03:22:37;6.50;;;5.90;;
15307;SDS011;7755;52.208;6.964;2023-09-07T03:26:39;7.00;;;6.40;;
15307;SDS011;7755;52.208;6.964;2023-09-07T03:30:42;6.37;;;5.87;;
15307;SDS011;7755;52.208;6.964;2023-09-07T03:34:47;6.53;;;5.93;;
15307;SDS011;7755;52.208;6.964;2023-09-07T03:38:50;7.50;;;6.80;;
15307;SDS011;7755;52.208;6.964;2023-09-07T03:42:53;7.20;;;6.60;;
15307;SDS011;7755;52.208;6.964;2023-09-07T03:46:56;7.57;;;6.87;;
15307;SDS011;7755;52.208;6.964;2023-09-07T03:51:00;7.40;;;6.70;;
15307;SDS011;7755;52.208;6.964;2023-09-07T03:55:07;6.70;;;6.20;;
15307;SDS011;7755;52.208;6.964;2023-09-07T03:59:11;8.00;;;7.20;;
15307;SDS011;7755;52.208;6.964;2023-09-07T04:03:14;6.97;;;6.27;;
15307;SDS011;7755;52.208;6.964;2023-09-07T04:07:19;7.63;;;7.03;;
15307;SDS011;7755;52.208;6.964;2023-09-07T04:11:22;7.20;;;6.60;;
15307;SDS011;7755;52.208;6.964;2023-09-07T04:15:25;8.03;;;7.23;;
15307;SDS011;7755;52.208;6.964;2023-09-07T04:19:28;8.10;;;7.40;;
15307;SDS011;7755;52.208;6.964;2023-09-07T04:23:32;8.17;;;7.47;;
15307;SDS011;7755;52.208;6.964;2023-09-07T04:27:37;7.50;;;6.90;;
15307;SDS011;7755;52.208;6.964;2023-09-07T04:31:42;8.10;;;7.30;;
15307;SDS011;7755;52.208;6.964;2023-09-07T04:35:45;7.97;;;7.27;;
15307;SDS011;7755;52.208;6.964;2023-09-07T04:39:50;8.67;;;7.97;;
15307;SDS011;7755;52.208;6.964;2023-09-07T04:43:53;8.83;;;8.03;;
15307;SDS011;7755;52.208;6.964;2023-09-07T04:47:56;9.03;;;8.13;;
15307;SDS011;7755;52.208;6.964;2023-09-07T04:51:59;8.83;;;8.03;;
15307;SDS011;7755;52.208;6.964;2023-09-07T04:56:05;8.10;;;7.40;;
15307;SDS011;7755;52.208;6.964;2023-09-07T05:00:09;7.40;;;6.80;;
15307;SDS011;7755;52.208;6.964;2023-09-07T05:04:14;8.53;;;7.83;;
15307;SDS011;7755;52.208;6.964;2023-09-07T05:08:17;8.70;;;7.80;;
15307;SDS011;7755;52.208;6.964;2023-09-07T05:12:24;9.40;;;8.63;;
15307;SDS011;7755;52.208;6.964;2023-09-07T05:16:29;9.53;;;8.73;;
15307;SDS011;7755;52.208;6.964;2023-09-07T05:20:36;9.53;;;8.73;;
15307;SDS011;7755;52.208;6.964;2023-09-07T05:24:39;8.67;;;7.87;;
15307;SDS011;7755;52.208;6.964;2023-09-07T05:28:44;8.57;;;7.87;;
15307;SDS011;7755;52.208;6.964;2023-09-07T05:32:48;8.30;;;7.60;;
15307;SDS011;7755;52.208;6.964;2023-09-07T05:36:51;8.77;;;7.97;;
15307;SDS011;7755;52.208;6.964;2023-09-07T05:40:54;9.67;;;8.77;;
15307;SDS011;7755;52.208;6.964;2023-09-07T05:44:59;8.43;;;7.73;;
15307;SDS011;7755;52.208;6.964;2023-09-07T05:49:03;8.50;;;7.80;;
15307;SDS011;7755;52.208;6.964;2023-09-07T05:53:07;9.30;;;8.50;;
15307;SDS011;7755;52.208;6.964;2023-09-07T05:57:10;8.27;;;7.47;;
15307;SDS011;7755;52.208;6.964;2023-09-07T06:01:14;8.60;;;7.67;;
15307;SDS011;7755;52.208;6.964;2023-09-07T06:05:17;8.60;;;7.80;;
15307;SDS011;7755;52.208;6.964;2023-09-07T06:09:23;10.03;;;9.23;;
15307;SDS011;7755;52.208;6.964;2023-09-07T06:13:26;9.70;;;8.80;;
15307;SDS011;7755;52.208;6.964;2023-09-07T06:17:30;10.77;;;9.23;;
15307;SDS011;7755;52.208;6.964;2023-09-07T06:21:34;10.53;;;9.43;;
15307;SDS011;7755;52.208;6.964;2023-09-07T06:25:37;10.00;;;9.10;;
15307;SDS011;7755;52.208;6.964;2023-09-07T06:29:40;10.80;;;9.60;;
15307;SDS011;7755;52.208;6.964;2023-09-07T06:33:45;9.47;;;8.57;;
15307;SDS011;7755;52.208;6.964;2023-09-07T06:37:48;10.27;;;9.27;;
15307;SDS011;7755;52.208;6.964;2023-09-07T06:41:54;10.07;;;9.17;;
15307;SDS011;7755;52.208;6.964;2023-09-07T06:46:02;10.27;;;8.80;;
15307;SDS011;7755;52.208;6.964;2023-09-07T06:50:09;9.63;;;8.37;;
15307;SDS011;7755;52.208;6.964;2023-09-07T06:54:13;10.53;;;9.53;;
15307;SDS011;7755;52.208;6.964;2023-09-07T06:58:16;9.93;;;9.07;;
15307;SDS011;7755;52.208;6.964;2023-09-07T07:02:19;8.83;;;7.93;;
15307;SDS011;7755;52.208;6.964;2023-09-07T07:06:23;9.23;;;8.43;;
15307;SDS011;7755;52.208;6.964;2023-09-07T07:10:26;9.13;;;8.33;;
15307;SDS011;7755;52.208;6.964;2023-09-07T07:14:29;8.37;;;7.70;;
15307;SDS011;7755;52.208;6.964;2023-09-07T07:18:33;8.70;;;7.90;;
15307;SDS011;7755;52.208;6.964;2023-09-07T07:22:37;9.23;;;8.03;;
15307;SDS011;7755;52.208;6.964;2023-09-07T07:26:41;8.73;;;7.93;;
15307;SDS011;7755;52.208;6.964;2023-09-07T07:30:44;8.10;;;7.30;;
15307;SDS011;7755;52.208;6.964;2023-09-07T07:34:47;7.80;;;7.10;;
15307;SDS011;7755;52.208;6.964;2023-09-07T07:38:52;7.90;;;7.10;;
15307;SDS011;7755;52.208;6.964;2023-09-07T07:42:56;7.70;;;6.93;;
15307;SDS011;7755;52.208;6.964;2023-09-07T07:46:59;7.43;;;6.83;;
15307;SDS011;7755;52.208;6.964;2023-09-07T07:51:02;7.53;;;6.73;;
15307;SDS011;7755;52.208;6.964;2023-09-07T07:55:13;6.50;;;6.00;;
15307;SDS011;7755;52.208;6.964;2023-09-07T07:59:16;7.03;;;6.47;;
15307;SDS011;7755;52.208;6.964;2023-09-07T08:03:19;6.80;;;6.20;;
15307;SDS011;7755;52.208;6.964;2023-09-07T08:07:23;6.67;;;6.07;;
15307;SDS011;7755;52.208;6.964;2023-09-07T08:11:29;5.90;;;5.40;;
15307;SDS011;7755;52.208;6.964;2023-09-07T08:15:32;5.90;;;5.40;;
15307;SDS011;7755;52.208;6.964;2023-09-07T08:19:38;6.60;;;6.00;;
15307;SDS011;7755;52.208;6.964;2023-09-07T08:23:41;6.07;;;5.63;;
15307;SDS011;7755;52.208;6.964;2023-09-07T08:27:45;5.70;;;5.20;;
15307;SDS011;7755;52.208;6.964;2023-09-07T08:31:50;6.15;;;5.60;;
15307;SDS011;7755;52.208;6.964;2023-09-07T08:35:54;6.10;;;5.50;;
15307;SDS011;7755;52.208;6.964;2023-09-07T08:40:07;5.07;;;4.63;;
15307;SDS011;7755;52.208;6.964;2023-09-07T08:44:15;6.13;;;5.63;;
15307;SDS011;7755;52.208;6.964;2023-09-07T08:48:18;5.28;;;4.88;;
15307;SDS011;7755;52.208;6.964;2023-09-07T08:52:22;5.68;;;5.10;;
15307;SDS011;7755;52.208;6.964;2023-09-07T08:56:25;5.18;;;4.70;;
15307;SDS011;7755;52.208;6.964;2023-09-07T09:00:29;4.90;;;4.47;;
15307;SDS011;7755;52.208;6.964;2023-09-07T09:04:32;5.55;;;5.05;;
15307;SDS011;7755;52.208;6.964;2023-09-07T09:08:42;5.15;;;4.65;;
15307;SDS011;7755;52.208;6.964;2023-09-07T09:12:46;5.13;;;4.63;;
15307;SDS011;7755;52.208;6.964;2023-09-07T09:16:50;5.05;;;4.55;;
15307;SDS011;7755;52.208;6.964;2023-09-07T09:20:54;4.90;;;4.43;;
15307;SDS011;7755;52.208;6.964;2023-09-07T09:25:02;5.20;;;4.70;;
15307;SDS011;7755;52.208;6.964;2023-09-07T09:29:06;5.25;;;4.75;;
15307;SDS011;7755;52.208;6.964;2023-09-07T09:33:12;5.68;;;4.90;;
15307;SDS011;7755;52.208;6.964;2023-09-07T09:37:15;5.53;;;5.10;;
15307;SDS011;7755;52.208;6.964;2023-09-07T09:41:18;4.80;;;4.40;;
15307;SDS011;7755;52.208;6.964;2023-09-07T09:45:22;4.50;;;4.20;;
15307;SDS011;7755;52.208;6.964;2023-09-07T09:49:26;5.03;;;4.63;;
15307;SDS011;7755;52.208;6.964;2023-09-07T09:53:31;5.47;;;4.97;;
15307;SDS011;7755;52.208;6.964;2023-09-07T09:57:34;5.07;;;4.63;;
15307;SDS011;7755;52.208;6.964;2023-09-07T10:01:38;4.95;;;4.45;;
15307;SDS011;7755;52.208;6.964;2023-09-07T10:05:47;5.20;;;4.70;;
15307;SDS011;7755;52.208;6.964;2023-09-07T10:09:49;4.85;;;4.55;;
15307;SDS011;7755;52.208;6.964;2023-09-07T10:13:56;5.18;;;4.68;;
15307;SDS011;7755;52.208;6.964;2023-09-07T10:18:06;5.18;;;4.70;;
15307;SDS011;7755;52.208;6.964;2023-09-07T10:22:11;4.70;;;4.30;;
15307;SDS011;7755;52.208;6.964;2023-09-07T10:26:24;5.15;;;4.75;;
15307;SDS011;7755;52.208;6.964;2023-09-07T10:30:27;5.40;;;4.68;;
15307;SDS011;7755;52.208;6.964;2023-09-07T10:34:34;6.18;;;4.75;;
15307;SDS011;7755;52.208;6.964;2023-09-07T10:38:40;6.90;;;5.10;;
15307;SDS011;7755;52.208;6.964;2023-09-07T10:42:43;5.32;;;4.82;;
15307;SDS011;7755;52.208;6.964;2023-09-07T10:46:46;5.10;;;4.70;;
15307;SDS011;7755;52.208;6.964;2023-09-07T10:50:50;4.80;;;4.43;;
15307;SDS011;7755;52.208;6.964;2023-09-07T10:54:58;7.05;;;4.53;;
15307;SDS011;7755;52.208;6.964;2023-09-07T10:59:01;5.45;;;4.88;;
15307;SDS011;7755;52.208;6.964;2023-09-07T11:03:08;5.10;;;4.60;;
15307;SDS011;7755;52.208;6.964;2023-09-07T11:07:12;4.95;;;4.50;;
15307;SDS011;7755;52.208;6.964;2023-09-07T11:11:17;4.80;;;4.40;;
15307;SDS011;7755;52.208;6.964;2023-09-07T11:15:20;5.15;;;4.57;;
15307;SDS011;7755;52.208;6.964;2023-09-07T11:19:24;5.25;;;4.85;;
15307;SDS011;7755;52.208;6.964;2023-09-07T11:23:27;6.68;;;4.95;;
15307;SDS011;7755;52.208;6.964;2023-09-07T11:27:34;4.63;;;4.20;;
15307;SDS011;7755;52.208;6.964;2023-09-07T11:31:37;5.35;;;4.38;;
15307;SDS011;7755;52.208;6.964;2023-09-07T11:35:40;5.97;;;4.25;;
15307;SDS011;7755;52.208;6.964;2023-09-07T11:39:43;4.50;;;4.20;;
15307;SDS011;7755;52.208;6.964;2023-09-07T11:43:47;5.22;;;4.82;;
15307;SDS011;7755;52.208;6.964;2023-09-07T11:47:50;4.90;;;4.53;;
15307;SDS011;7755;52.208;6.964;2023-09-07T11:51:52;6.63;;;4.20;;
15307;SDS011;7755;52.208;6.964;2023-09-07T11:55:55;5.00;;;4.60;;
15307;SDS011;7755;52.208;6.964;2023-09-07T12:00:00;4.90;;;4.53;;
15307;SDS011;7755;52.208;6.964;2023-09-07T12:04:11;4.95;;;4.32;;
15307;SDS011;7755;52.208;6.964;2023-09-07T12:08:14;4.40;;;4.07;;
15307;SDS011;7755;52.208;6.964;2023-09-07T12:12:17;4.30;;;4.00;;
15307;SDS011;7755;52.208;6.964;2023-09-07T12:16:21;5.03;;;4.60;;
15307;SDS011;7755;52.208;6.964;2023-09-07T12:20:24;4.40;;;4.10;;
15307;SDS011;7755;52.208;6.964;2023-09-07T12:24:27;4.53;;;4.15;;
15307;SDS011;7755;52.208;6.964;2023-09-07T12:28:30;4.50;;;4.20;;
15307;SDS011;7755;52.208;6.964;2023-09-07T12:32:35;4.82;;;4.43;;
15307;SDS011;7755;52.208;6.964;2023-09-07T12:36:38;4.97;;;4.28;;
15307;SDS011;7755;52.208;6.964;2023-09-07T12:40:40;4.35;;;4.05;;
15307;SDS011;7755;52.208;6.964;2023-09-07T12:44:43;5.18;;;4.68;;
15307;SDS011;7755;52.208;6.964;2023-09-07T12:48:47;4.13;;;3.83;;
15307;SDS011;7755;52.208;6.964;2023-09-07T12:52:50;4.35;;;4.05;;
15307;SDS011;7755;52.208;6.964;2023-09-07T12:56:53;4.50;;;4.10;;
15307;SDS011;7755;52.208;6.964;2023-09-07T13:00:56;4.57;;;4.10;;
15307;SDS011;7755;52.208;6.964;2023-09-07T13:05:00;4.20;;;3.80;;
15307;SDS011;7755;52.208;6.964;2023-09-07T13:09:07;4.22;;;3.78;;
15307;SDS011;7755;52.208;6.964;2023-09-07T13:13:10;4.22;;;3.90;;
15307;SDS011;7755;52.208;6.964;2023-09-07T13:17:13;4.45;;;4.05;;
15307;SDS011;7755;52.208;6.964;2023-09-07T13:21:18;4.63;;;4.22;;
15307;SDS011;7755;52.208;6.964;2023-09-07T13:25:21;4.22;;;3.92;;
15307;SDS011;7755;52.208;6.964;2023-09-07T13:29:23;5.50;;;4.30;;
15307;SDS011;7755;52.208;6.964;2023-09-07T13:33:27;4.50;;;4.20;;
15307;SDS011;7755;52.208;6.964;2023-09-07T13:37:33;4.57;;;3.72;;
15307;SDS011;7755;52.208;6.964;2023-09-07T13:41:37;4.80;;;4.35;;
15307;SDS011;7755;52.208;6.964;2023-09-07T13:45:40;4.72;;;4.43;;
15307;SDS011;7755;52.208;6.964;2023-09-07T13:49:44;4.68;;;4.18;;
15307;SDS011;7755;52.208;6.964;2023-09-07T13:53:48;4.93;;;4.43;;
15307;SDS011;7755;52.208;6.964;2023-09-07T13:57:51;5.38;;;4.35;;
15307;SDS011;7755;52.208;6.964;2023-09-07T14:01:54;4.18;;;3.88;;
15307;SDS011;7755;52.208;6.964;2023-09-07T14:05:56;4.40;;;4.07;;
15307;SDS011;7755;52.208;6.964;2023-09-07T14:10:02;4.00;;;3.70;;
15307;SDS011;7755;52.208;6.964;2023-09-07T14:14:05;4.40;;;4.07;;
15307;SDS011;7755;52.208;6.964;2023-09-07T14:18:08;4.32;;;3.92;;
15307;SDS011;7755;52.208;6.964;2023-09-07T14:22:11;4.80;;;4.25;;
15307;SDS011;7755;52.208;6.964;2023-09-07T14:26:15;4.32;;;3.97;;
15307;SDS011;7755;52.208;6.964;2023-09-07T14:30:18;4.20;;;3.80;;
15307;SDS011;7755;52.208;6.964;2023-09-07T14:34:21;3.83;;;3.38;;
15307;SDS011;7755;52.208;6.964;2023-09-07T14:38:25;5.50;;;3.80;;
15307;SDS011;7755;52.208;6.964;2023-09-07T14:42:30;3.92;;;3.63;;
15307;SDS011;7755;52.208;6.964;2023-09-07T14:46:32;3.83;;;3.53;;
15307;SDS011;7755;52.208;6.964;2023-09-07T14:50:35;4.28;;;3.88;;
15307;SDS011;7755;52.208;6.964;2023-09-07T14:54:39;4.28;;;3.88;;
15307;SDS011;7755;52.208;6.964;2023-09-07T14:58:46;4.00;;;3.60;;
15307;SDS011;7755;52.208;6.964;2023-09-07T15:02:50;4.82;;;4.28;;
15307;SDS011;7755;52.208;6.964;2023-09-07T15:06:53;4.20;;;3.80;;
15307;SDS011;7755;52.208;6.964;2023-09-07T15:10:56;3.80;;;3.50;;
15307;SDS011;7755;52.208;6.964;2023-09-07T15:15:01;4.03;;;3.55;;
15307;SDS011;7755;52.208;6.964;2023-09-07T15:19:04;4.43;;;3.88;;
15307;SDS011;7755;52.208;6.964;2023-09-07T15:23:07;4.20;;;3.90;;
15307;SDS011;7755;52.208;6.964;2023-09-07T15:27:10;4.55;;;4.13;;
15307;SDS011;7755;52.208;6.964;2023-09-07T15:31:16;4.03;;;3.72;;
15307;SDS011;7755;52.208;6.964;2023-09-07T15:35:19;4.57;;;4.25;;
15307;SDS011;7755;52.208;6.964;2023-09-07T15:39:22;4.00;;;3.70;;
15307;SDS011;7755;52.208;6.964;2023-09-07T15:43:27;4.50;;;4.20;;
15307;SDS011;7755;52.208;6.964;2023-09-07T15:47:31;4.45;;;4.10;;
15307;SDS011;7755;52.208;6.964;2023-09-07T15:51:35;4.75;;;4.35;;
15307;SDS011;7755;52.208;6.964;2023-09-07T15:55:38;4.95;;;4.45;;
15307;SDS011;7755;52.208;6.964;2023-09-07T15:59:45;5.30;;;4.90;;
15307;SDS011;7755;52.208;6.964;2023-09-07T16:03:50;4.70;;;4.30;;
15307;SDS011;7755;52.208;6.964;2023-09-07T16:07:53;5.05;;;4.63;;
15307;SDS011;7755;52.208;6.964;2023-09-07T16:11:56;6.05;;;4.70;;
15307;SDS011;7755;52.208;6.964;2023-09-07T16:15:59;4.95;;;4.35;;
15307;SDS011;7755;52.208;6.964;2023-09-07T16:20:05;5.75;;;4.50;;
15307;SDS011;7755;52.208;6.964;2023-09-07T16:24:10;5.75;;;4.80;;
15307;SDS011;7755;52.208;6.964;2023-09-07T16:28:13;5.53;;;4.70;;
15307;SDS011;7755;52.208;6.964;2023-09-07T16:32:17;6.78;;;5.82;;
15307;SDS011;7755;52.208;6.964;2023-09-07T16:36:21;5.15;;;4.75;;
15307;SDS011;7755;52.208;6.964;2023-09-07T16:40:24;5.55;;;4.97;;
15307;SDS011;7755;52.208;6.964;2023-09-07T16:44:27;5.03;;;4.50;;
15307;SDS011;7755;52.208;6.964;2023-09-07T16:48:30;4.93;;;4.50;;
15307;SDS011;7755;52.208;6.964;2023-09-07T16:52:36;5.38;;;4.60;;
15307;SDS011;7755;52.208;6.964;2023-09-07T16:56:40;5.18;;;4.78;;
15307;SDS011;7755;52.208;6.964;2023-09-07T17:00:43;5.40;;;4.90;;
15307;SDS011;7755;52.208;6.964;2023-09-07T17:04:47;4.78;;;4.38;;
15307;SDS011;7755;52.208;6.964;2023-09-07T17:08:51;5.13;;;4.72;;
15307;SDS011;7755;52.208;6.964;2023-09-07T17:12:54;5.25;;;4.72;;
15307;SDS011;7755;52.208;6.964;2023-09-07T17:16:56;6.50;;;5.00;;
15307;SDS011;7755;52.208;6.964;2023-09-07T17:21:03;5.18;;;4.68;;
15307;SDS011;7755;52.208;6.964;2023-09-07T17:25:10;5.00;;;4.60;;
15307;SDS011;7755;52.208;6.964;2023-09-07T17:29:13;5.82;;;5.38;;
15307;SDS011;7755;52.208;6.964;2023-09-07T17:33:16;6.72;;;4.60;;
15307;SDS011;7755;52.208;6.964;2023-09-07T17:37:19;5.15;;;4.72;;
15307;SDS011;7755;52.208;6.964;2023-09-07T17:41:25;5.30;;;4.80;;
15307;SDS011;7755;52.208;6.964;2023-09-07T17:45:28;5.30;;;4.85;;
15307;SDS011;7755;52.208;6.964;2023-09-07T17:49:31;5.07;;;4.68;;
15307;SDS011;7755;52.208;6.964;2023-09-07T17:53:34;5.47;;;4.93;;
15307;SDS011;7755;52.208;6.964;2023-09-07T17:57:38;5.55;;;5.05;;
15307;SDS011;7755;52.208;6.964;2023-09-07T18:01:41;5.70;;;5.20;;
15307;SDS011;7755;52.208;6.964;2023-09-07T18:05:45;5.60;;;5.20;;
15307;SDS011;7755;52.208;6.964;2023-09-07T18:09:48;6.15;;;5.30;;
15307;SDS011;7755;52.208;6.964;2023-09-07T18:13:53;6.75;;;5.80;;
15307;SDS011;7755;52.208;6.964;2023-09-07T18:18:13;5.50;;;5.00;;
15307;SDS011;7755;52.208;6.964;2023-09-07T18:22:17;5.05;;;4.65;;
15307;SDS011;7755;52.208;6.964;2023-09-07T18:26:32;5.80;;;5.30;;
15307;SDS011;7755;52.208;6.964;2023-09-07T18:30:36;6.10;;;5.60;;
15307;SDS011;7755;52.208;6.964;2023-09-07T18:34:43;5.30;;;4.90;;
15307;SDS011;7755;52.208;6.964;2023-09-07T18:38:47;5.33;;;5.00;;
15307;SDS011;7755;52.208;6.964;2023-09-07T18:43:00;5.90;;;5.40;;
15307;SDS011;7755;52.208;6.964;2023-09-07T18:47:05;5.60;;;5.20;;
15307;SDS011;7755;52.208;6.964;2023-09-07T18:51:08;5.43;;;4.63;;
15307;SDS011;7755;52.208;6.964;2023-09-07T18:55:22;5.43;;;4.63;;
15307;SDS011;7755;52.208;6.964;2023-09-07T18:59:26;5.87;;;5.27;;
15307;SDS011;7755;52.208;6.964;2023-09-07T19:03:30;6.13;;;5.67;;
15307;SDS011;7755;52.208;6.964;2023-09-07T19:07:43;6.25;;;5.57;;
15307;SDS011;7755;52.208;6.964;2023-09-07T19:11:46;5.63;;;5.13;;
15307;SDS011;7755;52.208;6.964;2023-09-07T19:15:55;5.82;;;5.30;;
15307;SDS011;7755;52.208;6.964;2023-09-07T19:20:02;6.23;;;5.63;;
15307;SDS011;7755;52.208;6.964;2023-09-07T19:24:05;5.83;;;5.33;;
15307;SDS011;7755;52.208;6.964;2023-09-07T19:28:09;6.23;;;5.63;;
15307;SDS011;7755;52.208;6.964;2023-09-07T19:32:13;5.80;;;5.30;;
15307;SDS011;7755;52.208;6.964;2023-09-07T19:36:21;5.77;;;5.27;;
15307;SDS011;7755;52.208;6.964;2023-09-07T19:40:27;7.63;;;7.03;;
15307;SDS011;7755;52.208;6.964;2023-09-07T19:44:31;8.23;;;7.53;;
15307;SDS011;7755;52.208;6.964;2023-09-07T19:48:34;6.77;;;6.17;;
15307;SDS011;7755;52.208;6.964;2023-09-07T19:52:40;8.07;;;6.00;;
15307;SDS011;7755;52.208;6.964;2023-09-07T19:56:47;6.73;;;6.13;;
15307;SDS011;7755;52.208;6.964;2023-09-07T20:00:50;6.90;;;6.27;;
15307;SDS011;7755;52.208;6.964;2023-09-07T20:04:53;6.10;;;5.63;;
15307;SDS011;7755;52.208;6.964;2023-09-07T20:08:58;6.50;;;5.90;;
15307;SDS011;7755;52.208;6.964;2023-09-07T20:13:00;6.23;;;5.73;;
15307;SDS011;7755;52.208;6.964;2023-09-07T20:17:03;6.60;;;6.00;;
15307;SDS011;7755;52.208;6.964;2023-09-07T20:21:06;10.00;;;9.00;;
15307;SDS011;7755;52.208;6.964;2023-09-07T20:25:11;8.93;;;8.03;;
15307;SDS011;7755;52.208;6.964;2023-09-07T20:29:13;8.67;;;7.87;;
15307;SDS011;7755;52.208;6.964;2023-09-07T20:33:17;7.53;;;6.83;;
15307;SDS011;7755;52.208;6.964;2023-09-07T20:37:36;6.77;;;6.07;;
15307;SDS011;7755;52.208;6.964;2023-09-07T20:46:03;6.37;;;5.87;;
15307;SDS011;7755;52.208;6.964;2023-09-07T20:50:06;6.30;;;5.80;;
15307;SDS011;7755;52.208;6.964;2023-09-07T20:54:09;6.83;;;6.33;;
15307;SDS011;7755;52.208;6.964;2023-09-07T20:58:14;6.83;;;6.23;;
15307;SDS011;7755;52.208;6.964;2023-09-07T21:02:17;6.40;;;5.90;;
15307;SDS011;7755;52.208;6.964;2023-09-07T21:06:20;6.07;;;5.47;;
15307;SDS011;7755;52.208;6.964;2023-09-07T21:10:23;6.40;;;5.90;;
15307;SDS011;7755;52.208;6.964;2023-09-07T21:14:27;5.60;;;5.20;;
15307;SDS011;7755;52.208;6.964;2023-09-07T21:18:30;13.33;;;9.93;;
15307;SDS011;7755;52.208;6.964;2023-09-07T21:22:34;8.57;;;7.77;;
15307;SDS011;7755;52.208;6.964;2023-09-07T21:26:37;7.70;;;6.73;;
15307;SDS011;7755;52.208;6.964;2023-09-07T21:30:41;6.80;;;6.27;;
15307;SDS011;7755;52.208;6.964;2023-09-07T21:34:44;6.70;;;6.03;;
15307;SDS011;7755;52.208;6.964;2023-09-07T21:38:47;6.30;;;5.67;;
15307;SDS011;7755;52.208;6.964;2023-09-07T21:42:49;6.53;;;5.93;;
15307;SDS011;7755;52.208;6.964;2023-09-07T21:46:53;6.67;;;6.07;;
15307;SDS011;7755;52.208;6.964;2023-09-07T21:50:56;6.80;;;6.20;;
15307;SDS011;7755;52.208;6.964;2023-09-07T21:54:59;6.63;;;6.03;;
15307;SDS011;7755;52.208;6.964;2023-09-07T21:59:02;5.70;;;5.20;;
15307;SDS011;7755;52.208;6.964;2023-09-07T22:03:07;5.70;;;5.20;;
15307;SDS011;7755;52.208;6.964;2023-09-07T22:07:10;6.00;;;5.57;;
15307;SDS011;7755;52.208;6.964;2023-09-07T22:11:13;6.17;;;5.53;;
15307;SDS011;7755;52.208;6.964;2023-09-07T22:15:15;6.93;;;6.13;;
15307;SDS011;7755;52.208;6.964;2023-09-07T22:19:20;7.13;;;6.53;;
15307;SDS011;7755;52.208;6.964;2023-09-07T22:23:22;7.17;;;6.60;;
15307;SDS011;7755;52.208;6.964;2023-09-07T22:27:43;6.50;;;5.90;;
15307;SDS011;7755;52.208;6.964;2023-09-07T22:31:47;6.57;;;5.97;;
15307;SDS011;7755;52.208;6.964;2023-09-07T22:35:51;6.70;;;6.20;;
15307;SDS011;7755;52.208;6.964;2023-09-07T22:39:55;6.40;;;5.83;;
15307;SDS011;7755;52.208;6.964;2023-09-07T22:43:58;5.80;;;5.30;;
15307;SDS011;7755;52.208;6.964;2023-09-07T22:48:01;6.27;;;5.70;;
15307;SDS011;7755;52.208;6.964;2023-09-07T22:52:06;6.07;;;5.47;;
15307;SDS011;7755;52.208;6.964;2023-09-07T22:56:08;6.13;;;5.63;;
15307;SDS011;7755;52.208;6.964;2023-09-07T23:00:12;6.20;;;5.70;;
15307;SDS011;7755;52.208;6.964;2023-09-07T23:04:15;6.40;;;5.87;;
15307;SDS011;7755;52.208;6.964;2023-09-07T23:08:19;6.90;;;6.30;;
15307;SDS011;7755;52.208;6.964;2023-09-07T23:12:22;6.50;;;5.93;;
15307;SDS011;7755;52.208;6.964;2023-09-07T23:16:27;6.23;;;5.63;;
15307;SDS011;7755;52.208;6.964;2023-09-07T23:20:30;6.90;;;6.30;;
15307;SDS011;7755;52.208;6.964;2023-09-07T23:24:34;7.10;;;6.50;;
15307;SDS011;7755;52.208;6.964;2023-09-07T23:28:38;6.57;;;6.07;;
15307;SDS011;7755;52.208;6.964;2023-09-07T23:32:41;6.87;;;6.27;;
15307;SDS011;7755;52.208;6.964;2023-09-07T23:36:44;13.20;;;12.00;;
15307;SDS011;7755;52.208;6.964;2023-09-07T23:40:48;15.20;;;13.83;;
15307;SDS011;7755;52.208;6.964;2023-09-07T23:44:51;18.27;;;16.47;;
15307;SDS011;7755;52.208;6.964;2023-09-07T23:48:53;13.57;;;12.37;;
15307;SDS011;7755;52.208;6.964;2023-09-07T23:52:56;9.57;;;8.67;;
15307;SDS011;7755;52.208;6.964;2023-09-07T23:57:00;9.10;;;8.30;;
